sensor_id;sensor_type;location;lat;lon;timestamp;P1;durP1;ratioP1;P2;durP2;ratioP2
38037;SDS011;23843;51.320;12.340;2023-07-02T00:00:07;0.30;;;0.30;;
38037;SDS011;23843;51.320;12.340;2023-07-02T00:02:33;0.50;;;0.50;;
38037;SDS011;23843;51.320;12.340;2023-07-02T00:04:59;0.30;;;0.30;;
38037;SDS011;23843;51.320;12.340;2023-07-02T00:07:26;0.20;;;0.20;;
38037;SDS011;23843;51.320;12.340;2023-07-02T00:09:55;0.30;;;0.30;;
38037;SDS011;23843;51.320;12.340;2023-07-02T00:12:20;0.20;;;0.20;;
38037;SDS011;23843;51.320;12.340;2023-07-02T00:14:46;0.40;;;0.40;;
38037;SDS011;23843;51.320;12.340;2023-07-02T00:17:11;0.30;;;0.30;;
38037;SDS011;23843;51.320;12.340;2023-07-02T00:19:37;0.30;;;0.30;;
38037;SDS011;23843;51.320;12.340;2023-07-02T00:22:03;0.30;;;0.30;;
38037;SDS011;23843;51.320;12.340;2023-07-02T00:24:30;0.50;;;0.40;;
38037;SDS011;23843;51.320;12.340;2023-07-02T00:26:55;0.30;;;0.30;;
38037;SDS011;23843;51.320;12.340;2023-07-02T00:29:20;0.60;;;0.60;;
38037;SDS011;23843;51.320;12.340;2023-07-02T00:31:46;0.28;;;0.28;;
38037;SDS011;23843;51.320;12.340;2023-07-02T00:34:11;0.30;;;0.30;;
38037;SDS011;23843;51.320;12.340;2023-07-02T00:36:37;0.20;;;0.20;;
38037;SDS011;23843;51.320;12.340;2023-07-02T00:39:02;0.20;;;0.20;;
38037;SDS011;23843;51.320;12.340;2023-07-02T00:41:29;0.40;;;0.40;;
38037;SDS011;23843;51.320;12.340;2023-07-02T00:43:55;0.40;;;0.40;;
38037;SDS011;23843;51.320;12.340;2023-07-02T00:46:21;0.90;;;0.90;;
38037;SDS011;23843;51.320;12.340;2023-07-02T00:48:48;0.50;;;0.50;;
38037;SDS011;23843;51.320;12.340;2023-07-02T00:51:16;0.40;;;0.40;;
38037;SDS011;23843;51.320;12.340;2023-07-02T00:53:43;0.30;;;0.30;;
38037;SDS011;23843;51.320;12.340;2023-07-02T00:56:09;0.32;;;0.32;;
38037;SDS011;23843;51.320;12.340;2023-07-02T00:58:37;0.30;;;0.30;;
38037;SDS011;23843;51.320;12.340;2023-07-02T01:01:05;0.30;;;0.30;;
38037;SDS011;23843;51.320;12.340;2023-07-02T01:03:30;0.40;;;0.40;;
38037;SDS011;23843;51.320;12.340;2023-07-02T01:05:56;0.20;;;0.20;;
38037;SDS011;23843;51.320;12.340;2023-07-02T01:08:21;0.30;;;0.30;;
38037;SDS011;23843;51.320;12.340;2023-07-02T01:10:47;0.28;;;0.28;;
38037;SDS011;23843;51.320;12.340;2023-07-02T01:13:14;0.30;;;0.30;;
38037;SDS011;23843;51.320;12.340;2023-07-02T01:15:45;0.20;;;0.20;;
38037;SDS011;23843;51.320;12.340;2023-07-02T01:18:11;0.20;;;0.20;;
38037;SDS011;23843;51.320;12.340;2023-07-02T01:20:41;0.20;;;0.20;;
38037;SDS011;23843;51.320;12.340;2023-07-02T01:23:07;0.10;;;0.10;;
38037;SDS011;23843;51.320;12.340;2023-07-02T01:25:33;0.20;;;0.20;;
38037;SDS011;23843;51.320;12.340;2023-07-02T01:27:58;0.10;;;0.10;;
38037;SDS011;23843;51.320;12.340;2023-07-02T01:30:24;0.10;;;0.10;;
38037;SDS011;23843;51.320;12.340;2023-07-02T01:32:50;0.20;;;0.20;;
38037;SDS011;23843;51.320;12.340;2023-07-02T01:35:15;0.10;;;0.10;;
38037;SDS011;23843;51.320;12.340;2023-07-02T01:37:42;0.17;;;0.17;;
38037;SDS011;23843;51.320;12.340;2023-07-02T01:40:08;0.20;;;0.10;;
38037;SDS011;23843;51.320;12.340;2023-07-02T01:42:33;0.30;;;0.30;;
38037;SDS011;23843;51.320;12.340;2023-07-02T01:44:59;0.20;;;0.20;;
38037;SDS011;23843;51.320;12.340;2023-07-02T01:47:25;0.20;;;0.20;;
38037;SDS011;23843;51.320;12.340;2023-07-02T01:49:50;0.20;;;0.20;;
38037;SDS011;23843;51.320;12.340;2023-07-02T01:52:16;0.70;;;0.70;;
38037;SDS011;23843;51.320;12.340;2023-07-02T01:54:43;0.20;;;0.20;;
38037;SDS011;23843;51.320;12.340;2023-07-02T01:57:10;0.22;;;0.22;;
38037;SDS011;23843;51.320;12.340;2023-07-02T01:59:35;0.15;;;0.15;;
38037;SDS011;23843;51.320;12.340;2023-07-02T02:02:01;0.22;;;0.22;;
38037;SDS011;23843;51.320;12.340;2023-07-02T02:04:26;0.20;;;0.20;;
38037;SDS011;23843;51.320;12.340;2023-07-02T02:06:52;0.20;;;0.20;;
38037;SDS011;23843;51.320;12.340;2023-07-02T02:09:18;0.30;;;0.30;;
38037;SDS011;23843;51.320;12.340;2023-07-02T02:11:47;0.17;;;0.17;;
38037;SDS011;23843;51.320;12.340;2023-07-02T02:14:14;0.22;;;0.20;;
38037;SDS011;23843;51.320;12.340;2023-07-02T02:16:39;0.20;;;0.20;;
38037;SDS011;23843;51.320;12.340;2023-07-02T02:19:05;0.20;;;0.20;;
38037;SDS011;23843;51.320;12.340;2023-07-02T02:21:31;0.20;;;0.20;;
38037;SDS011;23843;51.320;12.340;2023-07-02T02:23:56;0.43;;;0.40;;
38037;SDS011;23843;51.320;12.340;2023-07-02T02:26:22;0.40;;;0.40;;
38037;SDS011;23843;51.320;12.340;2023-07-02T02:28:49;0.30;;;0.30;;
38037;SDS011;23843;51.320;12.340;2023-07-02T02:31:15;0.40;;;0.40;;
38037;SDS011;23843;51.320;12.340;2023-07-02T02:33:40;0.20;;;0.20;;
38037;SDS011;23843;51.320;12.340;2023-07-02T02:36:06;0.20;;;0.20;;
38037;SDS011;23843;51.320;12.340;2023-07-02T02:38:31;0.30;;;0.30;;
38037;SDS011;23843;51.320;12.340;2023-07-02T02:40:57;0.28;;;0.28;;
38037;SDS011;23843;51.320;12.340;2023-07-02T02:43:22;0.68;;;0.68;;
38037;SDS011;23843;51.320;12.340;2023-07-02T02:45:49;0.25;;;0.25;;
38037;SDS011;23843;51.320;12.340;2023-07-02T02:48:14;0.20;;;0.20;;
38037;SDS011;23843;51.320;12.340;2023-07-02T02:50:40;0.35;;;0.35;;
38037;SDS011;23843;51.320;12.340;2023-07-02T02:53:05;0.30;;;0.30;;
38037;SDS011;23843;51.320;12.340;2023-07-02T02:55:31;0.30;;;0.30;;
38037;SDS011;23843;51.320;12.340;2023-07-02T02:57:56;0.25;;;0.25;;
38037;SDS011;23843;51.320;12.340;2023-07-02T03:00:22;0.40;;;0.40;;
38037;SDS011;23843;51.320;12.340;2023-07-02T03:02:49;0.40;;;0.40;;
38037;SDS011;23843;51.320;12.340;2023-07-02T03:05:14;0.28;;;0.28;;
38037;SDS011;23843;51.320;12.340;2023-07-02T03:07:40;0.30;;;0.30;;
38037;SDS011;23843;51.320;12.340;2023-07-02T03:10:06;0.20;;;0.20;;
38037;SDS011;23843;51.320;12.340;2023-07-02T03:12:32;0.35;;;0.35;;
38037;SDS011;23843;51.320;12.340;2023-07-02T03:14:57;0.30;;;0.30;;
38037;SDS011;23843;51.320;12.340;2023-07-02T03:17:23;0.30;;;0.30;;
38037;SDS011;23843;51.320;12.340;2023-07-02T03:19:50;0.32;;;0.32;;
38037;SDS011;23843;51.320;12.340;2023-07-02T03:22:15;0.30;;;0.30;;
38037;SDS011;23843;51.320;12.340;2023-07-02T03:24:41;0.47;;;0.30;;
38037;SDS011;23843;51.320;12.340;2023-07-02T03:27:06;0.40;;;0.40;;
38037;SDS011;23843;51.320;12.340;2023-07-02T03:29:33;0.90;;;0.90;;
38037;SDS011;23843;51.320;12.340;2023-07-02T03:31:59;0.30;;;0.30;;
38037;SDS011;23843;51.320;12.340;2023-07-02T03:34:25;0.40;;;0.40;;
38037;SDS011;23843;51.320;12.340;2023-07-02T03:36:52;0.30;;;0.30;;
38037;SDS011;23843;51.320;12.340;2023-07-02T03:39:17;0.38;;;0.38;;
38037;SDS011;23843;51.320;12.340;2023-07-02T03:41:43;0.40;;;0.40;;
38037;SDS011;23843;51.320;12.340;2023-07-02T03:44:08;0.30;;;0.30;;
38037;SDS011;23843;51.320;12.340;2023-07-02T03:46:34;1.10;;;0.50;;
38037;SDS011;23843;51.320;12.340;2023-07-02T03:49:00;0.50;;;0.50;;
38037;SDS011;23843;51.320;12.340;2023-07-02T03:51:25;0.38;;;0.38;;
38037;SDS011;23843;51.320;12.340;2023-07-02T03:53:52;0.32;;;0.32;;
38037;SDS011;23843;51.320;12.340;2023-07-02T03:56:17;0.30;;;0.30;;
38037;SDS011;23843;51.320;12.340;2023-07-02T03:58:43;0.30;;;0.30;;
38037;SDS011;23843;51.320;12.340;2023-07-02T04:01:08;0.30;;;0.30;;
38037;SDS011;23843;51.320;12.340;2023-07-02T04:03:34;0.20;;;0.20;;
38037;SDS011;23843;51.320;12.340;2023-07-02T04:05:59;0.45;;;0.45;;
38037;SDS011;23843;51.320;12.340;2023-07-02T04:08:25;0.30;;;0.30;;
38037;SDS011;23843;51.320;12.340;2023-07-02T04:10:52;0.20;;;0.20;;
38037;SDS011;23843;51.320;12.340;2023-07-02T04:13:17;0.90;;;0.90;;
38037;SDS011;23843;51.320;12.340;2023-07-02T04:15:43;0.30;;;0.30;;
38037;SDS011;23843;51.320;12.340;2023-07-02T04:18:08;0.30;;;0.30;;
38037;SDS011;23843;51.320;12.340;2023-07-02T04:20:34;0.30;;;0.30;;
38037;SDS011;23843;51.320;12.340;2023-07-02T04:22:59;0.20;;;0.20;;
38037;SDS011;23843;51.320;12.340;2023-07-02T04:25:25;0.40;;;0.40;;
38037;SDS011;23843;51.320;12.340;2023-07-02T04:27:52;0.50;;;0.50;;
38037;SDS011;23843;51.320;12.340;2023-07-02T04:30:17;0.57;;;0.30;;
38037;SDS011;23843;51.320;12.340;2023-07-02T04:32:43;0.30;;;0.28;;
38037;SDS011;23843;51.320;12.340;2023-07-02T04:35:08;0.40;;;0.40;;
38037;SDS011;23843;51.320;12.340;2023-07-02T04:37:34;0.40;;;0.40;;
38037;SDS011;23843;51.320;12.340;2023-07-02T04:40:00;0.52;;;0.45;;
38037;SDS011;23843;51.320;12.340;2023-07-02T04:42:26;0.32;;;0.32;;
38037;SDS011;23843;51.320;12.340;2023-07-02T04:44:53;0.30;;;0.30;;
38037;SDS011;23843;51.320;12.340;2023-07-02T04:47:18;0.30;;;0.30;;
38037;SDS011;23843;51.320;12.340;2023-07-02T04:49:43;0.50;;;0.50;;
38037;SDS011;23843;51.320;12.340;2023-07-02T04:52:09;0.40;;;0.40;;
38037;SDS011;23843;51.320;12.340;2023-07-02T04:54:34;0.20;;;0.20;;
38037;SDS011;23843;51.320;12.340;2023-07-02T04:57:00;0.30;;;0.30;;
38037;SDS011;23843;51.320;12.340;2023-07-02T04:59:25;0.60;;;0.60;;
38037;SDS011;23843;51.320;12.340;2023-07-02T05:01:52;0.50;;;0.50;;
38037;SDS011;23843;51.320;12.340;2023-07-02T05:04:18;0.43;;;0.43;;
38037;SDS011;23843;51.320;12.340;2023-07-02T05:06:43;0.30;;;0.30;;
38037;SDS011;23843;51.320;12.340;2023-07-02T05:09:09;0.30;;;0.30;;
38037;SDS011;23843;51.320;12.340;2023-07-02T05:11:34;0.40;;;0.40;;
38037;SDS011;23843;51.320;12.340;2023-07-02T05:14:00;0.40;;;0.40;;
38037;SDS011;23843;51.320;12.340;2023-07-02T05:16:25;0.50;;;0.50;;
38037;SDS011;23843;51.320;12.340;2023-07-02T05:18:52;0.60;;;0.52;;
38037;SDS011;23843;51.320;12.340;2023-07-02T05:21:18;0.60;;;0.60;;
38037;SDS011;23843;51.320;12.340;2023-07-02T05:23:44;0.45;;;0.45;;
38037;SDS011;23843;51.320;12.340;2023-07-02T05:26:10;0.50;;;0.50;;
38037;SDS011;23843;51.320;12.340;2023-07-02T05:28:35;0.40;;;0.40;;
38037;SDS011;23843;51.320;12.340;2023-07-02T05:31:01;0.60;;;0.60;;
38037;SDS011;23843;51.320;12.340;2023-07-02T05:33:26;0.60;;;0.60;;
38037;SDS011;23843;51.320;12.340;2023-07-02T05:35:53;0.90;;;0.90;;
38037;SDS011;23843;51.320;12.340;2023-07-02T05:38:19;0.60;;;0.60;;
38037;SDS011;23843;51.320;12.340;2023-07-02T05:40:45;0.70;;;0.70;;
38037;SDS011;23843;51.320;12.340;2023-07-02T05:43:10;0.68;;;0.68;;
38037;SDS011;23843;51.320;12.340;2023-07-02T05:45:36;0.70;;;0.70;;
38037;SDS011;23843;51.320;12.340;2023-07-02T05:48:01;0.50;;;0.50;;
38037;SDS011;23843;51.320;12.340;2023-07-02T05:50:27;2.15;;;0.90;;
38037;SDS011;23843;51.320;12.340;2023-07-02T05:52:54;0.88;;;0.88;;
38037;SDS011;23843;51.320;12.340;2023-07-02T05:55:19;1.02;;;0.98;;
38037;SDS011;23843;51.320;12.340;2023-07-02T05:57:45;1.20;;;1.10;;
38037;SDS011;23843;51.320;12.340;2023-07-02T06:00:11;1.38;;;1.27;;
38037;SDS011;23843;51.320;12.340;2023-07-02T06:02:37;0.80;;;0.80;;
38037;SDS011;23843;51.320;12.340;2023-07-02T06:05:03;0.90;;;0.90;;
38037;SDS011;23843;51.320;12.340;2023-07-02T06:07:30;0.90;;;0.90;;
38037;SDS011;23843;51.320;12.340;2023-07-02T06:09:57;1.13;;;1.08;;
38037;SDS011;23843;51.320;12.340;2023-07-02T06:12:23;1.10;;;1.10;;
38037;SDS011;23843;51.320;12.340;2023-07-02T06:14:49;1.63;;;1.52;;
38037;SDS011;23843;51.320;12.340;2023-07-02T06:17:14;1.00;;;1.00;;
38037;SDS011;23843;51.320;12.340;2023-07-02T06:19:44;1.38;;;1.27;;
38037;SDS011;23843;51.320;12.340;2023-07-02T06:22:09;1.05;;;1.05;;
38037;SDS011;23843;51.320;12.340;2023-07-02T06:24:35;1.55;;;1.10;;
38037;SDS011;23843;51.320;12.340;2023-07-02T06:27:02;0.98;;;0.98;;
38037;SDS011;23843;51.320;12.340;2023-07-02T06:29:28;1.05;;;1.05;;
38037;SDS011;23843;51.320;12.340;2023-07-02T06:31:53;0.90;;;0.90;;
38037;SDS011;23843;51.320;12.340;2023-07-02T06:34:19;0.80;;;0.80;;
38037;SDS011;23843;51.320;12.340;2023-07-02T06:36:44;1.20;;;1.20;;
38037;SDS011;23843;51.320;12.340;2023-07-02T06:39:09;0.70;;;0.70;;
38037;SDS011;23843;51.320;12.340;2023-07-02T06:41:35;0.90;;;0.90;;
38037;SDS011;23843;51.320;12.340;2023-07-02T06:44:02;0.90;;;0.80;;
38037;SDS011;23843;51.320;12.340;2023-07-02T06:46:28;1.02;;;1.02;;
38037;SDS011;23843;51.320;12.340;2023-07-02T06:48:54;1.05;;;1.05;;
38037;SDS011;23843;51.320;12.340;2023-07-02T06:51:19;0.80;;;0.80;;
38037;SDS011;23843;51.320;12.340;2023-07-02T06:53:45;0.90;;;0.90;;
38037;SDS011;23843;51.320;12.340;2023-07-02T06:56:10;2.78;;;1.10;;
38037;SDS011;23843;51.320;12.340;2023-07-02T06:58:36;0.70;;;0.70;;
38037;SDS011;23843;51.320;12.340;2023-07-02T07:01:03;1.33;;;1.20;;
38037;SDS011;23843;51.320;12.340;2023-07-02T07:03:28;0.70;;;0.70;;
38037;SDS011;23843;51.320;12.340;2023-07-02T07:05:54;1.10;;;1.00;;
38037;SDS011;23843;51.320;12.340;2023-07-02T07:08:20;1.10;;;1.10;;
38037;SDS011;23843;51.320;12.340;2023-07-02T07:10:46;0.82;;;0.82;;
38037;SDS011;23843;51.320;12.340;2023-07-02T07:13:12;0.88;;;0.88;;
38037;SDS011;23843;51.320;12.340;2023-07-02T07:15:37;0.80;;;0.80;;
38037;SDS011;23843;51.320;12.340;2023-07-02T07:18:04;1.52;;;0.85;;
38037;SDS011;23843;51.320;12.340;2023-07-02T07:20:30;0.80;;;0.80;;
38037;SDS011;23843;51.320;12.340;2023-07-02T07:22:56;0.98;;;0.90;;
38037;SDS011;23843;51.320;12.340;2023-07-02T07:25:24;1.15;;;1.05;;
38037;SDS011;23843;51.320;12.340;2023-07-02T07:27:50;1.00;;;1.00;;
38037;SDS011;23843;51.320;12.340;2023-07-02T07:30:16;0.98;;;0.80;;
38037;SDS011;23843;51.320;12.340;2023-07-02T07:32:42;0.80;;;0.80;;
38037;SDS011;23843;51.320;12.340;2023-07-02T07:35:09;0.90;;;0.90;;
38037;SDS011;23843;51.320;12.340;2023-07-02T07:37:34;0.70;;;0.70;;
38037;SDS011;23843;51.320;12.340;2023-07-02T07:40:03;0.55;;;0.55;;
38037;SDS011;23843;51.320;12.340;2023-07-02T07:42:29;0.50;;;0.50;;
38037;SDS011;23843;51.320;12.340;2023-07-02T07:44:54;0.50;;;0.50;;
38037;SDS011;23843;51.320;12.340;2023-07-02T07:47:20;0.80;;;0.80;;
38037;SDS011;23843;51.320;12.340;2023-07-02T07:49:45;1.67;;;1.58;;
38037;SDS011;23843;51.320;12.340;2023-07-02T07:52:14;1.38;;;1.27;;
38037;SDS011;23843;51.320;12.340;2023-07-02T07:54:40;0.90;;;0.90;;
38037;SDS011;23843;51.320;12.340;2023-07-02T07:57:06;0.80;;;0.80;;
38037;SDS011;23843;51.320;12.340;2023-07-02T07:59:32;0.80;;;0.80;;
38037;SDS011;23843;51.320;12.340;2023-07-02T08:01:57;0.80;;;0.80;;
38037;SDS011;23843;51.320;12.340;2023-07-02T08:04:25;0.80;;;0.80;;
38037;SDS011;23843;51.320;12.340;2023-07-02T08:06:52;0.80;;;0.80;;
38037;SDS011;23843;51.320;12.340;2023-07-02T08:09:19;0.68;;;0.68;;
38037;SDS011;23843;51.320;12.340;2023-07-02T08:11:45;0.77;;;0.77;;
38037;SDS011;23843;51.320;12.340;2023-07-02T08:14:11;0.50;;;0.50;;
38037;SDS011;23843;51.320;12.340;2023-07-02T08:16:36;0.60;;;0.60;;
38037;SDS011;23843;51.320;12.340;2023-07-02T08:19:02;0.60;;;0.60;;
38037;SDS011;23843;51.320;12.340;2023-07-02T08:21:28;0.70;;;0.70;;
38037;SDS011;23843;51.320;12.340;2023-07-02T08:23:53;0.77;;;0.77;;
38037;SDS011;23843;51.320;12.340;2023-07-02T08:26:22;0.93;;;0.90;;
38037;SDS011;23843;51.320;12.340;2023-07-02T08:28:48;0.80;;;0.80;;
38037;SDS011;23843;51.320;12.340;2023-07-02T08:31:14;1.15;;;1.05;;
38037;SDS011;23843;51.320;12.340;2023-07-02T08:33:40;1.00;;;1.00;;
38037;SDS011;23843;51.320;12.340;2023-07-02T08:36:05;1.40;;;1.30;;
38037;SDS011;23843;51.320;12.340;2023-07-02T08:38:31;1.15;;;1.00;;
38037;SDS011;23843;51.320;12.340;2023-07-02T08:40:59;0.80;;;0.80;;
38037;SDS011;23843;51.320;12.340;2023-07-02T08:43:29;0.75;;;0.75;;
38037;SDS011;23843;51.320;12.340;2023-07-02T08:45:55;0.73;;;0.73;;
38037;SDS011;23843;51.320;12.340;2023-07-02T08:48:21;0.65;;;0.65;;
38037;SDS011;23843;51.320;12.340;2023-07-02T08:50:47;0.70;;;0.70;;
38037;SDS011;23843;51.320;12.340;2023-07-02T08:53:13;0.70;;;0.70;;
38037;SDS011;23843;51.320;12.340;2023-07-02T08:55:38;0.80;;;0.80;;
38037;SDS011;23843;51.320;12.340;2023-07-02T08:58:04;0.70;;;0.60;;
38037;SDS011;23843;51.320;12.340;2023-07-02T09:00:31;0.50;;;0.50;;
38037;SDS011;23843;51.320;12.340;2023-07-02T09:02:57;0.70;;;0.70;;
38037;SDS011;23843;51.320;12.340;2023-07-02T09:05:22;0.60;;;0.60;;
38037;SDS011;23843;51.320;12.340;2023-07-02T09:07:48;0.60;;;0.60;;
38037;SDS011;23843;51.320;12.340;2023-07-02T09:10:25;0.60;;;0.60;;
38037;SDS011;23843;51.320;12.340;2023-07-02T09:12:51;0.65;;;0.65;;
38037;SDS011;23843;51.320;12.340;2023-07-02T09:15:29;1.23;;;0.70;;
38037;SDS011;23843;51.320;12.340;2023-07-02T09:18:03;1.52;;;0.80;;
38037;SDS011;23843;51.320;12.340;2023-07-02T09:20:39;0.80;;;0.80;;
38037;SDS011;23843;51.320;12.340;2023-07-02T09:23:11;0.57;;;0.57;;
38037;SDS011;23843;51.320;12.340;2023-07-02T09:25:37;0.80;;;0.80;;
38037;SDS011;23843;51.320;12.340;2023-07-02T09:28:13;0.90;;;0.90;;
38037;SDS011;23843;51.320;12.340;2023-07-02T09:30:53;0.60;;;0.60;;
38037;SDS011;23843;51.320;12.340;2023-07-02T09:33:19;0.50;;;0.50;;
38037;SDS011;23843;51.320;12.340;2023-07-02T09:35:45;1.65;;;1.02;;
38037;SDS011;23843;51.320;12.340;2023-07-02T09:38:10;1.10;;;1.00;;
38037;SDS011;23843;51.320;12.340;2023-07-02T09:40:37;1.10;;;1.10;;
38037;SDS011;23843;51.320;12.340;2023-07-02T09:43:10;0.90;;;0.90;;
38037;SDS011;23843;51.320;12.340;2023-07-02T09:45:37;2.20;;;1.15;;
38037;SDS011;23843;51.320;12.340;2023-07-02T09:48:05;0.95;;;0.90;;
38037;SDS011;23843;51.320;12.340;2023-07-02T09:50:31;0.90;;;0.90;;
38037;SDS011;23843;51.320;12.340;2023-07-02T09:52:57;2.03;;;1.30;;
38037;SDS011;23843;51.320;12.340;2023-07-02T09:55:23;2.67;;;2.10;;
38037;SDS011;23843;51.320;12.340;2023-07-02T09:57:49;4.43;;;2.70;;
38037;SDS011;23843;51.320;12.340;2023-07-02T10:00:14;3.75;;;2.40;;
38037;SDS011;23843;51.320;12.340;2023-07-02T10:02:41;3.72;;;2.20;;
38037;SDS011;23843;51.320;12.340;2023-07-02T10:05:08;1.70;;;1.60;;
38037;SDS011;23843;51.320;12.340;2023-07-02T10:07:33;2.00;;;1.80;;
38037;SDS011;23843;51.320;12.340;2023-07-02T10:09:59;1.92;;;1.60;;
38037;SDS011;23843;51.320;12.340;2023-07-02T10:12:25;1.20;;;1.10;;
38037;SDS011;23843;51.320;12.340;2023-07-02T10:14:53;1.50;;;1.40;;
38037;SDS011;23843;51.320;12.340;2023-07-02T10:17:24;2.25;;;1.10;;
38037;SDS011;23843;51.320;12.340;2023-07-02T10:19:51;2.70;;;2.25;;
38037;SDS011;23843;51.320;12.340;2023-07-02T10:22:21;3.67;;;2.08;;
38037;SDS011;23843;51.320;12.340;2023-07-02T10:24:50;2.22;;;1.80;;
38037;SDS011;23843;51.320;12.340;2023-07-02T10:27:17;2.67;;;1.70;;
38037;SDS011;23843;51.320;12.340;2023-07-02T10:29:48;2.00;;;1.80;;
38037;SDS011;23843;51.320;12.340;2023-07-02T10:32:14;1.92;;;1.70;;
38037;SDS011;23843;51.320;12.340;2023-07-02T10:34:51;2.75;;;1.60;;
38037;SDS011;23843;51.320;12.340;2023-07-02T10:37:17;2.13;;;1.92;;
38037;SDS011;23843;51.320;12.340;2023-07-02T10:39:43;2.13;;;1.70;;
38037;SDS011;23843;51.320;12.340;2023-07-02T10:42:09;1.63;;;1.52;;
38037;SDS011;23843;51.320;12.340;2023-07-02T10:44:46;1.70;;;1.60;;
38037;SDS011;23843;51.320;12.340;2023-07-02T10:47:13;1.30;;;1.20;;
38037;SDS011;23843;51.320;12.340;2023-07-02T10:49:41;1.48;;;1.38;;
38037;SDS011;23843;51.320;12.340;2023-07-02T10:52:07;2.10;;;1.80;;
38037;SDS011;23843;51.320;12.340;2023-07-02T10:54:38;1.73;;;1.50;;
38037;SDS011;23843;51.320;12.340;2023-07-02T10:57:10;4.00;;;1.90;;
38037;SDS011;23843;51.320;12.340;2023-07-02T10:59:37;2.28;;;2.10;;
38037;SDS011;23843;51.320;12.340;2023-07-02T11:02:03;2.38;;;1.88;;
38037;SDS011;23843;51.320;12.340;2023-07-02T11:04:29;1.60;;;1.50;;
38037;SDS011;23843;51.320;12.340;2023-07-02T11:06:55;3.25;;;1.75;;
38037;SDS011;23843;51.320;12.340;2023-07-02T11:09:21;1.98;;;1.77;;
38037;SDS011;23843;51.320;12.340;2023-07-02T11:11:50;1.83;;;1.70;;
38037;SDS011;23843;51.320;12.340;2023-07-02T11:14:27;1.90;;;1.70;;
38037;SDS011;23843;51.320;12.340;2023-07-02T11:16:54;2.10;;;1.90;;
38037;SDS011;23843;51.320;12.340;2023-07-02T11:19:20;2.40;;;2.20;;
38037;SDS011;23843;51.320;12.340;2023-07-02T11:21:50;2.40;;;2.20;;
38037;SDS011;23843;51.320;12.340;2023-07-02T11:24:26;2.40;;;2.00;;
38037;SDS011;23843;51.320;12.340;2023-07-02T11:26:55;1.90;;;1.70;;
38037;SDS011;23843;51.320;12.340;2023-07-02T11:29:21;2.75;;;2.10;;
38037;SDS011;23843;51.320;12.340;2023-07-02T11:31:48;2.78;;;2.40;;
38037;SDS011;23843;51.320;12.340;2023-07-02T11:34:14;3.22;;;2.92;;
38037;SDS011;23843;51.320;12.340;2023-07-02T11:36:41;2.90;;;2.58;;
38037;SDS011;23843;51.320;12.340;2023-07-02T11:39:06;2.50;;;2.30;;
38037;SDS011;23843;51.320;12.340;2023-07-02T11:41:36;2.45;;;2.25;;
38037;SDS011;23843;51.320;12.340;2023-07-02T11:44:01;2.72;;;2.42;;
38037;SDS011;23843;51.320;12.340;2023-07-02T11:46:27;2.72;;;2.17;;
38037;SDS011;23843;51.320;12.340;2023-07-02T11:48:54;2.70;;;2.30;;
38037;SDS011;23843;51.320;12.340;2023-07-02T11:51:19;2.33;;;2.08;;
38037;SDS011;23843;51.320;12.340;2023-07-02T11:53:45;2.35;;;2.05;;
38037;SDS011;23843;51.320;12.340;2023-07-02T11:56:10;3.10;;;2.80;;
38037;SDS011;23843;51.320;12.340;2023-07-02T11:58:36;3.10;;;2.80;;
38037;SDS011;23843;51.320;12.340;2023-07-02T12:01:01;3.58;;;3.05;;
38037;SDS011;23843;51.320;12.340;2023-07-02T12:03:27;3.72;;;2.70;;
38037;SDS011;23843;51.320;12.340;2023-07-02T12:05:54;2.60;;;2.33;;
38037;SDS011;23843;51.320;12.340;2023-07-02T12:08:22;2.10;;;1.90;;
38037;SDS011;23843;51.320;12.340;2023-07-02T12:10:49;2.97;;;2.15;;
38037;SDS011;23843;51.320;12.340;2023-07-02T12:13:15;3.38;;;2.30;;
38037;SDS011;23843;51.320;12.340;2023-07-02T12:15:40;2.47;;;2.28;;
38037;SDS011;23843;51.320;12.340;2023-07-02T12:18:06;2.72;;;2.20;;
38037;SDS011;23843;51.320;12.340;2023-07-02T12:20:33;2.42;;;2.20;;
38037;SDS011;23843;51.320;12.340;2023-07-02T12:23:00;3.90;;;2.75;;
38037;SDS011;23843;51.320;12.340;2023-07-02T12:25:26;2.20;;;2.00;;
38037;SDS011;23843;51.320;12.340;2023-07-02T12:27:52;2.78;;;2.17;;
38037;SDS011;23843;51.320;12.340;2023-07-02T12:30:17;2.85;;;2.55;;
38037;SDS011;23843;51.320;12.340;2023-07-02T12:32:43;3.15;;;2.53;;
38037;SDS011;23843;51.320;12.340;2023-07-02T12:35:08;2.47;;;2.13;;
38037;SDS011;23843;51.320;12.340;2023-07-02T12:37:34;2.65;;;2.03;;
38037;SDS011;23843;51.320;12.340;2023-07-02T12:40:01;2.33;;;2.13;;
38037;SDS011;23843;51.320;12.340;2023-07-02T12:42:26;3.10;;;2.80;;
38037;SDS011;23843;51.320;12.340;2023-07-02T12:44:52;4.20;;;3.20;;
38037;SDS011;23843;51.320;12.340;2023-07-02T12:47:17;5.00;;;2.65;;
38037;SDS011;23843;51.320;12.340;2023-07-02T12:49:43;2.53;;;2.15;;
38037;SDS011;23843;51.320;12.340;2023-07-02T12:52:08;4.60;;;2.13;;
38037;SDS011;23843;51.320;12.340;2023-07-02T12:54:34;2.45;;;2.20;;
38037;SDS011;23843;51.320;12.340;2023-07-02T12:57:01;2.55;;;1.80;;
38037;SDS011;23843;51.320;12.340;2023-07-02T12:59:26;2.78;;;2.10;;
38037;SDS011;23843;51.320;12.340;2023-07-02T13:01:52;1.80;;;1.70;;
38037;SDS011;23843;51.320;12.340;2023-07-02T13:04:17;3.08;;;2.78;;
38037;SDS011;23843;51.320;12.340;2023-07-02T13:06:43;2.70;;;2.50;;
38037;SDS011;23843;51.320;12.340;2023-07-02T13:09:08;2.85;;;2.50;;
38037;SDS011;23843;51.320;12.340;2023-07-02T13:11:34;2.45;;;2.25;;
38037;SDS011;23843;51.320;12.340;2023-07-02T13:14:01;3.40;;;2.55;;
38037;SDS011;23843;51.320;12.340;2023-07-02T13:16:26;2.30;;;2.10;;
38037;SDS011;23843;51.320;12.340;2023-07-02T13:18:52;3.08;;;2.78;;
38037;SDS011;23843;51.320;12.340;2023-07-02T13:21:17;4.28;;;2.80;;
38037;SDS011;23843;51.320;12.340;2023-07-02T13:23:43;5.70;;;4.07;;
38037;SDS011;23843;51.320;12.340;2023-07-02T13:26:08;4.82;;;3.70;;
38037;SDS011;23843;51.320;12.340;2023-07-02T13:28:34;4.68;;;3.50;;
38037;SDS011;23843;51.320;12.340;2023-07-02T13:31:01;3.08;;;2.25;;
38037;SDS011;23843;51.320;12.340;2023-07-02T13:33:26;2.90;;;2.53;;
38037;SDS011;23843;51.320;12.340;2023-07-02T13:35:52;3.05;;;2.60;;
38037;SDS011;23843;51.320;12.340;2023-07-02T13:38:17;2.90;;;2.55;;
38037;SDS011;23843;51.320;12.340;2023-07-02T13:40:43;3.70;;;3.10;;
38037;SDS011;23843;51.320;12.340;2023-07-02T13:43:08;3.20;;;2.90;;
38037;SDS011;23843;51.320;12.340;2023-07-02T13:45:34;3.75;;;2.90;;
38037;SDS011;23843;51.320;12.340;2023-07-02T13:48:03;3.80;;;2.92;;
38037;SDS011;23843;51.320;12.340;2023-07-02T13:50:29;3.13;;;2.80;;
38037;SDS011;23843;51.320;12.340;2023-07-02T13:52:54;3.95;;;3.10;;
38037;SDS011;23843;51.320;12.340;2023-07-02T13:55:20;2.75;;;2.50;;
38037;SDS011;23843;51.320;12.340;2023-07-02T13:57:45;4.78;;;3.20;;
38037;SDS011;23843;51.320;12.340;2023-07-02T14:00:13;3.60;;;3.20;;
38037;SDS011;23843;51.320;12.340;2023-07-02T14:02:39;5.13;;;3.45;;
38037;SDS011;23843;51.320;12.340;2023-07-02T14:05:05;4.45;;;3.63;;
38037;SDS011;23843;51.320;12.340;2023-07-02T14:07:31;3.30;;;3.00;;
38037;SDS011;23843;51.320;12.340;2023-07-02T14:09:56;3.30;;;2.78;;
38037;SDS011;23843;51.320;12.340;2023-07-02T14:12:22;3.67;;;2.63;;
38037;SDS011;23843;51.320;12.340;2023-07-02T14:14:48;4.68;;;3.42;;
38037;SDS011;23843;51.320;12.340;2023-07-02T14:17:15;2.63;;;2.42;;
38037;SDS011;23843;51.320;12.340;2023-07-02T14:19:40;2.58;;;2.20;;
38037;SDS011;23843;51.320;12.340;2023-07-02T14:22:06;4.20;;;3.20;;
38037;SDS011;23843;51.320;12.340;2023-07-02T14:24:33;2.40;;;2.20;;
38037;SDS011;23843;51.320;12.340;2023-07-02T14:26:59;3.08;;;2.28;;